Time;durP1;ratioP1;P1;durP2;ratioP2;P2;SDS_P1;SDS_P2;PMS_P1;PMS_P2;Temp;Humidity;BMP_temperature;BMP_pressure;BME280_temperature;BME280_humidity;BME280_pressure;Samples;Min_cycle;Max_cycle;Signal;HPM_P1;HPM_P2
2023/01/01 00:01:44;;;;;;;10.82;5.90;;;13.30;99.90;;;;;;5019235;28;20285;-85
2023/01/01 00:04:14;;;;;;;5.55;4.82;;;13.40;99.90;;;;;;5027102;28;20173;-88
2023/01/01 00:06:42;;;;;;;5.88;3.90;;;13.60;99.90;;;;;;5023123;28;20213;-87
2023/01/01 00:11:55;;;;;;;4.57;2.67;;;14.00;99.90;;;;;;5025057;28;20373;-86
2023/01/01 00:14:22;;;;;;;4.75;2.88;;;14.30;99.90;;;;;;5030861;28;20193;-88
2023/01/01 00:16:49;;;;;;;3.05;2.40;;;14.30;99.90;;;;;;5025954;28;20222;-88
2023/01/01 00:19:16;;;;;;;5.20;3.08;;;14.30;99.90;;;;;;5023779;28;20215;-88
2023/01/01 00:21:45;;;;;;;5.03;3.30;;;14.10;99.90;;;;;;5025251;28;20239;-86
2023/01/01 00:24:12;;;;;;;8.02;3.42;;;14.10;99.90;;;;;;5024889;28;20286;-88
2023/01/01 00:26:39;;;;;;;6.45;5.80;;;14.20;99.90;;;;;;5023823;28;20197;-85
2023/01/01 00:29:06;;;;;;;13.50;7.53;;;14.30;99.90;;;;;;5023992;28;20270;-86
2023/01/01 00:31:33;;;;;;;11.25;8.90;;;14.30;99.90;;;;;;5029297;28;20452;-85
2023/01/01 00:34:00;;;;;;;6.03;2.95;;;14.30;99.90;;;;;;5024558;28;20200;-86
2023/01/01 00:36:29;;;;;;;4.68;4.20;;;14.50;99.90;;;;;;5024694;28;20619;-84
2023/01/01 00:38:57;;;;;;;5.50;4.18;;;14.50;99.90;;;;;;5011153;28;20203;-87
2023/01/01 00:41:24;;;;;;;7.72;5.00;;;14.40;99.90;;;;;;5027862;28;20191;-86
2023/01/01 00:43:51;;;;;;;4.50;3.50;;;14.40;99.90;;;;;;5019557;28;20188;-89
2023/01/01 00:46:19;;;;;;;3.33;2.50;;;14.30;99.90;;;;;;5026165;28;20452;-84
2023/01/01 00:48:46;;;;;;;4.07;3.03;;;14.30;99.90;;;;;;5029099;28;20184;-85
2023/01/01 00:51:13;;;;;;;2.83;2.42;;;14.40;99.90;;;;;;5024844;28;20694;-86
2023/01/01 00:53:39;;;;;;;6.45;3.55;;;14.20;99.90;;;;;;5025043;28;20218;-85
2023/01/01 00:56:07;;;;;;;4.50;2.80;;;14.20;99.90;;;;;;5027090;28;20266;-84
2023/01/01 00:58:34;;;;;;;3.67;3.08;;;;;;;;;;5025402;28;20511;-83
2023/01/01 01:01:01;;;;;;;2.53;2.33;;;14.00;99.90;;;;;;5024125;28;20194;-85
2023/01/01 01:03:29;;;;;;;3.47;2.72;;;;;;;;;;5022931;28;20250;-83
2023/01/01 01:06:10;;;;;;;3.22;2.80;;;14.00;99.90;;;;;;5022046;28;20190;-88
2023/01/01 01:08:39;;;;;;;6.78;4.93;;;14.00;99.90;;;;;;5164825;23;20242;-86
2023/01/01 01:11:11;;;;;;;7.50;6.63;;;14.00;99.90;;;;;;5011849;28;20448;-85
2023/01/01 01:13:39;;;;;;;5.75;4.60;;;14.10;99.90;;;;;;5010330;28;20271;-85
2023/01/01 01:16:25;;;;;;;5.13;2.47;;;14.30;99.90;;;;;;5007512;28;20226;-86
2023/01/01 01:18:56;;;;;;;2.90;2.60;;;14.10;99.90;;;;;;4995443;28;20827;-86
2023/01/01 01:21:24;;;;;;;3.53;3.22;;;14.20;99.90;;;;;;4993072;28;20617;-85
2023/01/01 01:23:53;;;;;;;4.35;3.15;;;14.30;99.90;;;;;;4995912;28;20543;-88
2023/01/01 01:26:25;;;;;;;3.95;2.80;;;14.20;99.90;;;;;;4995727;28;20217;-87
2023/01/01 01:28:52;;;;;;;4.30;2.30;;;14.30;99.90;;;;;;4997166;28;20206;-86
2023/01/01 01:31:22;;;;;;;2.58;2.28;;;14.40;99.90;;;;;;4993754;28;20199;-85
2023/01/01 01:33:49;;;;;;;3.20;2.50;;;14.50;99.90;;;;;;4998829;28;20406;-87
2023/01/01 01:36:17;;;;;;;2.90;2.40;;;14.50;99.90;;;;;;4999562;28;20245;-87
2023/01/01 01:38:45;;;;;;;4.55;2.70;;;14.60;99.90;;;;;;4995741;28;20235;-87
2023/01/01 01:41:13;;;;;;;2.53;2.10;;;14.70;99.90;;;;;;4994177;28;20200;-88
2023/01/01 01:43:59;;;;;;;3.25;2.50;;;14.60;99.90;;;;;;4996431;28;20455;-87
2023/01/01 01:46:41;;;;;;;3.50;2.20;;;14.70;99.90;;;;;;4990612;28;20229;-87
2023/01/01 01:49:19;;;;;;;6.60;2.65;;;14.80;99.90;;;;;;4987089;28;20204;-86
2023/01/01 01:51:47;;;;;;;3.03;2.55;;;14.70;99.90;;;;;;4989798;28;20199;-87
2023/01/01 01:54:19;;;;;;;3.20;2.10;;;14.80;99.90;;;;;;4998920;28;20383;-88
2023/01/01 01:56:57;;;;;;;1.97;1.70;;;14.80;99.90;;;;;;5001744;28;20246;-87
2023/01/01 01:59:29;;;;;;;3.73;2.17;;;14.70;99.90;;;;;;5003539;28;20467;-86
2023/01/01 02:01:57;;;;;;;2.97;2.23;;;14.70;99.90;;;;;;5003312;28;20445;-88
2023/01/01 02:04:28;;;;;;;3.03;2.25;;;14.70;99.90;;;;;;5003865;28;20465;-88
2023/01/01 02:06:56;;;;;;;2.40;1.63;;;14.60;99.90;;;;;;5002998;28;20523;-88
2023/01/01 02:09:23;;;;;;;3.43;2.33;;;14.70;99.90;;;;;;5001815;28;20452;-85
2023/01/01 02:11:51;;;;;;;3.30;2.30;;;14.70;99.90;;;;;;5007492;28;20444;-87
2023/01/01 02:14:17;;;;;;;2.67;1.97;;;14.70;99.90;;;;;;5010499;28;20488;-87
2023/01/01 02:17:08;;;;;;;4.70;2.60;;;14.60;99.90;;;;;;5005645;28;20875;-88
2023/01/01 02:19:59;;;;;;;2.88;2.30;;;14.90;99.90;;;;;;5004414;28;20484;-87
2023/01/01 02:22:35;;;;;;;3.23;2.23;;;14.90;99.90;;;;;;5000895;28;20196;-87
2023/01/01 02:25:40;;;;;;;3.17;2.47;;;14.90;99.90;;;;;;5004244;28;20440;-86
2023/01/01 02:28:20;;;;;;;2.53;2.20;;;14.80;99.90;;;;;;4998349;28;20423;-89
2023/01/01 02:30:49;;;;;;;2.87;1.90;;;14.90;99.90;;;;;;5004892;28;20447;-88
2023/01/01 02:33:21;;;;;;;2.20;1.50;;;14.90;99.90;;;;;;5007004;28;20452;-86
2023/01/01 02:35:56;;;;;;;4.20;2.50;;;14.90;99.90;;;;;;5004605;28;20780;-84
2023/01/01 02:38:34;;;;;;;2.60;1.88;;;14.90;99.90;;;;;;5015655;28;20464;-85
2023/01/01 02:41:28;;;;;;;1.80;1.67;;;14.80;99.90;;;;;;5118309;23;21228;-84
2023/01/01 02:43:55;;;;;;;2.30;1.90;;;14.90;99.90;;;;;;5010051;28;20433;-85
2023/01/01 02:46:31;;;;;;;3.10;1.73;;;14.80;99.90;;;;;;5009619;28;20395;-89
2023/01/01 02:48:58;;;;;;;2.33;1.70;;;14.90;99.90;;;;;;5006272;28;20455;-87
2023/01/01 02:51:58;;;;;;;2.53;2.20;;;14.90;99.90;;;;;;5007915;28;20449;-86
2023/01/01 02:54:52;;;;;;;2.70;2.40;;;15.00;99.90;;;;;;5007601;28;20415;-86
2023/01/01 02:57:39;;;;;;;2.27;2.00;;;15.10;99.90;;;;;;5006153;28;20444;-88
2023/01/01 03:00:18;;;;;;;2.73;2.17;;;15.20;99.90;;;;;;5003731;28;20437;-88
2023/01/01 03:03:04;;;;;;;2.43;2.20;;;15.10;99.90;;;;;;5009429;28;20431;-88
2023/01/01 03:09:02;;;;;;;2.17;2.07;;;15.20;99.90;;;;;;5008273;28;20680;-87
2023/01/01 03:11:55;;;;;;;2.73;2.10;;;15.20;99.90;;;;;;5012826;28;20456;-86
2023/01/01 03:14:52;;;;;;;2.00;1.90;;;15.20;99.90;;;;;;5008157;28;20412;-86
2023/01/01 03:17:25;;;;;;;3.40;2.43;;;15.00;99.90;;;;;;5011606;28;20482;-86
2023/01/01 03:19:55;;;;;;;2.50;2.17;;;15.10;99.90;;;;;;5003923;28;20420;-86
2023/01/01 03:22:27;;;;;;;2.20;2.00;;;15.10;99.90;;;;;;5008161;28;20456;-87
2023/01/01 03:25:18;;;;;;;2.73;2.53;;;15.10;99.90;;;;;;5000464;28;20676;-87
2023/01/01 03:28:02;;;;;;;4.87;2.90;;;15.20;99.90;;;;;;5003331;28;20458;-88
2023/01/01 03:30:32;;;;;;;3.23;2.60;;;15.10;99.90;;;;;;5004544;28;20460;-87
2023/01/01 03:33:06;;;;;;;3.22;2.28;;;15.20;99.90;;;;;;5007697;28;20841;-88
2023/01/01 03:35:47;;;;;;;4.37;3.33;;;15.10;99.90;;;;;;5012849;28;20195;-86
2023/01/01 03:38:25;;;;;;;2.60;2.40;;;15.00;99.90;;;;;;5001180;28;20436;-86
2023/01/01 03:41:00;;;;;;;3.30;2.72;;;15.00;99.90;;;;;;5007888;28;20182;-85
2023/01/01 03:43:51;;;;;;;3.30;2.50;;;15.00;99.90;;;;;;5011755;28;20525;-87
2023/01/01 03:46:24;;;;;;;4.20;3.13;;;14.90;99.90;;;;;;4972310;28;20231;-87
2023/01/01 03:48:59;;;;;;;2.70;2.50;;;14.90;99.90;;;;;;5000835;28;20444;-84
2023/01/01 03:52:11;;;;;;;5.27;3.53;;;14.90;99.90;;;;;;5006021;28;20438;-87
2023/01/01 03:54:54;;;;;;;4.90;3.37;;;14.90;99.90;;;;;;4983312;28;20448;-85
2023/01/01 03:57:44;;;;;;;2.47;2.27;;;14.90;99.90;;;;;;5009892;28;20446;-86
2023/01/01 04:00:18;;;;;;;7.37;4.47;;;14.90;99.90;;;;;;4995328;28;20408;-87
2023/01/01 04:03:02;;;;;;;3.03;2.57;;;14.90;99.90;;;;;;5009365;28;20453;-86
2023/01/01 04:05:30;;;;;;;3.23;2.83;;;14.70;99.90;;;;;;5008949;28;20440;-88
2023/01/01 04:08:01;;;;;;;2.60;2.20;;;14.60;99.90;;;;;;5215268;23;20493;-86
2023/01/01 04:10:31;;;;;;;2.20;2.00;;;14.40;99.90;;;;;;4998504;28;20648;-87
2023/01/01 04:13:01;;;;;;;4.05;2.45;;;14.30;99.90;;;;;;5006657;28;20464;-89
2023/01/01 04:15:28;;;;;;;2.75;2.25;;;14.30;99.90;;;;;;5003457;28;20229;-89
2023/01/01 04:17:55;;;;;;;8.65;2.55;;;14.20;99.90;;;;;;4999245;28;20227;-88
2023/01/01 04:20:23;;;;;;;3.13;2.83;;;14.10;99.90;;;;;;5007508;28;20221;-86
2023/01/01 04:22:51;;;;;;;6.20;3.30;;;14.10;99.90;;;;;;4993341;28;20462;-88
2023/01/01 04:25:18;;;;;;;3.83;2.60;;;14.10;99.90;;;;;;5006468;28;20420;-89
2023/01/01 04:27:44;;;;;;;2.30;2.10;;;14.00;99.90;;;;;;4999642;28;20214;-88
2023/01/01 04:30:13;;;;;;;3.72;2.05;;;14.00;99.90;;;;;;5005237;28;20452;-88
2023/01/01 04:32:41;;;;;;;2.65;2.13;;;14.10;99.90;;;;;;5001418;28;20249;-86
2023/01/01 04:48:31;;;;;;;3.92;2.40;;;14.00;99.90;;;;;;5612415;23;20235;-86
2023/01/01 04:51:03;;;;;;;2.23;2.03;;;14.10;99.90;;;;;;5427091;23;20238;-88
2023/01/01 05:04:18;;;;;;;3.63;2.85;;;14.10;99.90;;;;;;5667702;23;20220;-85
2023/01/01 05:12:04;;;;;;;2.67;2.47;;;14.00;99.90;;;;;;5789213;23;21162;-86
2023/01/01 05:17:06;;;;;;;7.60;2.45;;;13.90;99.90;;;;;;6019238;23;20385;-87
2023/01/01 05:22:09;;;;;;;2.75;2.05;;;13.80;99.90;;;;;;5871362;23;20297;-86
2023/01/01 05:24:37;;;;;;;3.83;1.92;;;13.80;99.90;;;;;;5143844;23;20588;-87
2023/01/01 05:32:22;;;;;;;3.03;2.08;;;13.70;99.90;;;;;;5738990;23;20318;-86
2023/01/01 05:34:51;;;;;;;2.60;1.63;;;13.70;99.90;;;;;;5381701;23;20243;-88
2023/01/01 05:42:41;;;;;;;5.60;3.20;;;13.80;99.90;;;;;;5176984;23;20246;-85
2023/01/01 05:45:09;;;;;;;3.83;2.80;;;13.80;99.90;;;;;;5004965;28;20212;-88
2023/01/01 05:47:35;;;;;;;4.45;2.40;;;13.80;99.90;;;;;;5006105;28;20208;-91
2023/01/01 05:50:03;;;;;;;3.50;2.45;;;13.80;99.90;;;;;;5009435;28;20524;-86
2023/01/01 05:52:28;;;;;;;2.97;2.50;;;13.90;99.90;;;;;;5222423;23;20230;-86
2023/01/01 05:54:57;;;;;;;4.73;2.13;;;13.90;99.90;;;;;;5011436;28;20472;-84
2023/01/01 05:57:23;;;;;;;3.05;1.92;;;14.00;99.90;;;;;;5012093;28;20486;-85
2023/01/01 05:59:51;;;;;;;5.78;3.03;;;14.00;99.90;;;;;;5008808;28;20272;-86
2023/01/01 06:02:17;;;;;;;3.92;2.17;;;13.80;99.90;;;;;;5002693;28;20222;-85
2023/01/01 06:04:44;;;;;;;2.70;2.40;;;13.90;99.90;;;;;;5008156;28;20395;-88
2023/01/01 06:07:11;;;;;;;2.60;2.30;;;13.80;99.90;;;;;;5003023;28;20213;-85
2023/01/01 06:09:38;;;;;;;2.60;1.95;;;13.80;99.90;;;;;;5008832;28;20230;-86
2023/01/01 06:12:06;;;;;;;3.35;2.60;;;13.70;99.90;;;;;;5000349;28;20212;-85
2023/01/01 06:14:33;;;;;;;2.63;2.42;;;13.60;99.90;;;;;;5006156;28;20199;-87
2023/01/01 06:17:00;;;;;;;3.95;2.95;;;13.50;99.90;;;;;;5007804;28;20233;-88
2023/01/01 06:19:27;;;;;;;3.45;2.63;;;13.30;99.90;;;;;;5008304;28;20210;-85
2023/01/01 06:21:54;;;;;;;2.35;1.98;;;13.40;99.90;;;;;;5083517;23;20273;-87
2023/01/01 06:24:21;;;;;;;2.40;2.08;;;13.30;99.90;;;;;;5012779;28;20197;-86
2023/01/01 06:26:48;;;;;;;3.22;2.13;;;13.40;99.90;;;;;;5005050;28;20222;-86
2023/01/01 06:29:15;;;;;;;4.47;2.50;;;13.30;99.90;;;;;;5003510;28;20221;-89
2023/01/01 06:31:42;;;;;;;3.30;2.00;;;13.20;99.90;;;;;;5002625;28;20398;-88
2023/01/01 06:34:09;;;;;;;3.45;2.88;;;13.30;99.90;;;;;;4999386;28;20206;-89
2023/01/01 06:36:36;;;;;;;4.95;2.83;;;13.20;99.90;;;;;;5016075;28;20210;-87
2023/01/01 06:39:03;;;;;;;2.97;2.22;;;13.20;99.90;;;;;;5004874;28;20797;-86
2023/01/01 06:41:31;;;;;;;2.90;2.58;;;13.10;99.90;;;;;;5195598;23;20232;-86
2023/01/01 06:43:59;;;;;;;3.97;2.92;;;13.00;99.90;;;;;;5099707;23;20292;-90
2023/01/01 06:46:34;;;;;;;3.17;1.92;;;13.00;99.90;;;;;;5255356;23;20441;-88
2023/01/01 06:49:04;;;;;;;4.05;3.10;;;12.90;99.90;;;;;;5008327;28;20236;-88
2023/01/01 06:51:35;;;;;;;3.30;2.60;;;12.90;99.90;;;;;;5008135;28;20210;-86
2023/01/01 06:54:04;;;;;;;4.25;3.00;;;12.90;99.90;;;;;;5013724;28;20213;-87
2023/01/01 06:56:31;;;;;;;7.82;2.72;;;12.90;99.90;;;;;;5005676;28;20205;-89
2023/01/01 06:58:59;;;;;;;3.08;2.78;;;12.90;99.90;;;;;;5012781;28;20248;-87
2023/01/01 07:01:31;;;;;;;3.78;2.13;;;12.80;99.90;;;;;;4996591;28;20209;-87
2023/01/01 07:04:00;;;;;;;3.55;2.70;;;12.80;99.90;;;;;;5011704;28;20211;-89
2023/01/01 07:06:30;;;;;;;2.67;2.20;;;12.80;99.90;;;;;;5009086;28;20232;-89
2023/01/01 07:08:57;;;;;;;4.35;2.15;;;12.70;99.90;;;;;;5010370;28;20198;-86
2023/01/01 07:11:25;;;;;;;2.50;2.30;;;12.70;99.90;;;;;;5011320;28;20186;-90
2023/01/01 07:13:52;;;;;;;4.15;2.25;;;12.80;99.90;;;;;;5011932;28;20187;-90
2023/01/01 07:16:19;;;;;;;3.92;2.20;;;12.90;99.90;;;;;;5004330;28;20201;-85
2023/01/01 07:18:49;;;;;;;4.43;2.83;;;13.20;99.90;;;;;;5003949;28;20684;-87
2023/01/01 07:21:39;;;;;;;3.10;1.92;;;13.10;99.90;;;;;;5003007;28;20232;-86
2023/01/01 07:24:11;;;;;;;4.15;3.10;;;13.10;99.90;;;;;;5001014;28;20233;-85
2023/01/01 07:26:40;;;;;;;3.22;2.70;;;13.20;99.90;;;;;;5000113;28;20213;-86
2023/01/01 07:29:08;;;;;;;3.42;2.05;;;13.20;99.90;;;;;;4998895;28;20230;-86
2023/01/01 07:31:37;;;;;;;3.22;2.45;;;13.20;99.90;;;;;;5004269;28;20210;-87
2023/01/01 07:34:06;;;;;;;3.50;2.42;;;14.40;99.90;;;;;;5003768;28;20600;-86
2023/01/01 07:39:08;;;;;;;2.42;2.10;;;13.30;99.90;;;;;;5032174;28;20275;-85
2023/01/01 07:41:37;;;;;;;4.18;2.47;;;13.30;99.90;;;;;;5109692;23;20217;-85
2023/01/01 07:44:04;;;;;;;4.68;3.30;;;14.10;99.90;;;;;;5018578;28;20194;-85
2023/01/01 07:46:34;;;;;;;3.47;2.60;;;13.40;99.90;;;;;;5012824;28;20277;-87
2023/01/01 07:49:01;;;;;;;3.10;2.20;;;13.50;99.90;;;;;;5009223;28;20200;-89
2023/01/01 07:53:57;;;;;;;4.00;2.08;;;;;;;;;;4981241;28;20213;-85
2023/01/01 07:56:33;;;;;;;3.08;2.28;;;13.80;99.90;;;;;;4979322;28;20204;-84
2023/01/01 07:59:00;;;;;;;3.85;2.50;;;13.90;99.90;;;;;;4981871;28;20235;-86
2023/01/01 08:01:28;;;;;;;4.05;2.55;;;14.00;99.90;;;;;;4973238;28;20563;-84
2023/01/01 08:09:12;;;;;;;4.03;2.25;;;14.10;99.90;;;;;;5204358;23;20916;-87
2023/01/01 08:11:39;;;;;;;2.60;1.80;;;14.20;99.90;;;;;;5004223;28;20263;-88
2023/01/01 08:14:06;;;;;;;6.63;2.72;;;14.30;99.90;;;;;;5009708;28;20257;-86
2023/01/01 08:16:33;;;;;;;2.55;2.28;;;14.50;99.90;;;;;;5006146;28;20201;-88
2023/01/01 08:19:00;;;;;;;2.90;2.70;;;14.40;99.90;;;;;;5078558;23;20433;-88
2023/01/01 08:21:28;;;;;;;3.03;2.30;;;14.60;99.90;;;;;;4990424;28;20490;-88
2023/01/01 08:23:54;;;;;;;2.20;2.00;;;14.70;99.90;;;;;;5198264;23;20482;-90
2023/01/01 08:28:52;;;;;;;2.07;1.60;;;14.70;99.90;;;;;;5451493;23;21615;-85
2023/01/01 08:31:23;;;;;;;6.40;2.43;;;14.90;99.90;;;;;;5120328;23;20520;-87
2023/01/01 08:39:07;;;;;;;2.40;2.20;;;15.10;99.90;;;;;;5079057;23;20510;-87
2023/01/01 08:41:34;;;;;;;2.30;2.10;;;15.20;99.90;;;;;;5010847;28;20428;-89
2023/01/01 08:44:01;;;;;;;9.17;2.87;;;15.40;99.90;;;;;;5010040;28;20408;-90
2023/01/01 08:46:29;;;;;;;2.20;2.00;;;15.60;99.90;;;;;;5256998;23;21011;-87
2023/01/01 08:48:56;;;;;;;6.27;2.63;;;15.60;99.90;;;;;;5226497;23;20494;-88
2023/01/01 08:51:23;;;;;;;3.10;1.87;;;15.70;99.90;;;;;;5212999;22;20478;-87
2023/01/01 08:53:50;;;;;;;4.20;2.27;;;15.80;99.90;;;;;;4984849;28;20573;-88
2023/01/01 08:56:17;;;;;;;2.60;1.97;;;16.00;99.90;;;;;;4983656;28;20483;-87
2023/01/01 08:58:44;;;;;;;12.03;2.93;;;16.10;99.90;;;;;;4984615;28;20464;-87
2023/01/01 09:01:11;;;;;;;3.70;2.10;;;16.10;99.90;;;;;;4991441;28;20429;-86
2023/01/01 09:06:20;;;;;;;3.00;2.37;;;16.40;99.90;;;;;;5273176;23;20468;-85
2023/01/01 09:08:47;;;;;;;2.70;2.10;;;16.40;99.90;;;;;;5002781;28;20437;-85
2023/01/01 09:13:53;;;;;;;4.20;2.50;;;16.30;99.90;;;;;;5478421;23;20239;-86
2023/01/01 09:18:48;;;;;;;3.73;2.23;;;16.30;99.90;;;;;;5081404;23;20528;-85
2023/01/01 09:21:15;;;;;;;2.53;1.97;;;16.30;99.90;;;;;;5010832;28;20435;-86
2023/01/01 09:23:42;;;;;;;4.47;2.60;;;16.30;99.90;;;;;;5250050;23;20447;-89
2023/01/01 09:26:10;;;;;;;3.00;1.87;;;16.30;99.90;;;;;;5014034;23;20426;-88
2023/01/01 09:28:37;;;;;;;5.17;2.70;;;16.40;99.90;;;;;;5026455;28;20428;-85
2023/01/01 09:31:05;;;;;;;2.90;2.17;;;16.50;99.90;;;;;;5011749;28;20406;-86
2023/01/01 09:33:32;;;;;;;2.60;2.10;;;16.40;99.90;;;;;;5104392;23;20553;-89
2023/01/01 09:36:13;;;;;;;4.17;2.43;;;16.40;99.90;;;;;;4987046;28;20490;-88
2023/01/01 09:38:40;;;;;;;2.50;2.30;;;16.40;99.90;;;;;;4984803;28;20530;-89
2023/01/01 09:41:20;;;;;;;3.03;2.77;;;16.50;99.90;;;;;;4984927;28;20449;-88
2023/01/01 09:44:22;;;;;;;4.13;2.30;;;16.30;99.90;;;;;;4971583;28;20470;-89
2023/01/01 09:46:51;;;;;;;4.47;2.87;;;16.40;99.90;;;;;;4878138;29;20427;-89
2023/01/01 09:49:31;;;;;;;3.30;2.30;;;16.40;99.90;;;;;;4948998;28;20510;-90
2023/01/01 09:52:00;;;;;;;2.97;2.33;;;16.40;99.90;;;;;;4982615;28;20609;-87
2023/01/01 09:54:35;;;;;;;3.10;2.30;;;16.50;99.90;;;;;;5374224;23;21385;-89
2023/01/01 09:57:07;;;;;;;2.30;1.80;;;16.60;99.90;;;;;;5723487;23;20503;-90
2023/01/01 10:05:24;;;;;;;2.80;2.10;;;16.70;99.90;;;;;;5565128;23;21245;-89
2023/01/01 10:10:31;;;;;;;4.00;2.00;;;16.80;99.90;;;;;;5373245;23;20482;-89
2023/01/01 10:15:39;;;;;;;4.60;2.50;;;16.80;99.90;;;;;;5508641;23;20452;-89
2023/01/01 10:26:29;;;;;;;2.87;2.27;;;16.70;99.90;;;;;;5970248;23;20952;-86
2023/01/01 10:39:38;;;;;;;2.83;2.63;;;16.60;99.90;;;;;;5269186;23;20430;-87
2023/01/01 10:42:10;;;;;;;3.53;2.77;;;16.70;99.90;;;;;;5672124;23;21210;-86
2023/01/01 10:47:28;;;;;;;3.63;2.60;;;16.80;99.90;;;;;;5608512;23;20449;-87
2023/01/01 10:50:04;;;;;;;3.13;2.37;;;16.80;99.90;;;;;;5007559;28;20428;-91
2023/01/01 10:52:39;;;;;;;3.70;3.10;;;16.90;99.90;;;;;;5017029;28;20422;-89
2023/01/01 10:55:22;;;;;;;4.10;3.20;;;17.00;99.90;;;;;;5007580;28;20454;-89
2023/01/01 10:57:49;;;;;;;5.00;2.90;;;17.10;99.90;;;;;;5002325;28;20435;-89
2023/01/01 11:00:27;;;;;;;2.80;2.40;;;17.20;99.90;;;;;;5008730;28;20482;-86
2023/01/01 11:03:20;;;;;;;2.80;2.53;;;17.20;99.90;;;;;;5010821;28;20509;-90
2023/01/01 11:35:54;;;;;;;5.00;3.00;;;17.40;99.90;;;;;;5109311;27;20545;-90
2023/01/01 11:38:23;;;;;;;3.33;2.90;;;17.50;99.90;;;;;;5090654;28;20429;-89
2023/01/01 11:41:07;;;;;;;3.17;2.87;;;17.60;99.90;;;;;;5084623;28;20466;-89
2023/01/01 11:43:45;;;;;;;4.60;3.13;;;17.60;99.90;;;;;;5090850;28;20425;-88
2023/01/01 11:46:21;;;;;;;4.57;3.00;;;17.70;99.90;;;;;;5082786;28;20426;-89
2023/01/01 11:48:49;;;;;;;8.13;2.30;;;17.70;99.90;;;;;;5132841;22;20477;-88
2023/01/01 11:51:32;;;;;;;3.70;2.97;;;17.80;99.90;;;;;;5159636;22;20531;-89
2023/01/01 11:57:03;;;;;;;5.13;3.37;;;18.10;99.90;;;;;;5416544;23;20506;-90
2023/01/01 11:59:42;;;;;;;5.60;3.03;;;17.90;99.90;;;;;;5044111;28;20420;-90
2023/01/01 12:02:14;;;;;;;4.23;2.77;;;17.90;99.90;;;;;;5056984;28;20457;-90
2023/01/01 12:04:53;;;;;;;9.00;3.80;;;18.10;99.90;;;;;;5183770;23;20514;-89
2023/01/01 12:07:27;;;;;;;3.80;3.03;;;18.10;99.90;;;;;;5029116;28;20417;-88
2023/01/01 12:10:03;;;;;;;3.63;3.33;;;18.30;99.90;;;;;;5030635;28;20755;-90
2023/01/01 12:12:47;;;;;;;5.70;3.40;;;18.20;99.90;;;;;;5037234;28;20421;-91
2023/01/01 12:15:35;;;;;;;3.10;2.83;;;18.10;99.90;;;;;;5054362;28;20495;-88
2023/01/01 12:18:30;;;;;;;4.63;3.53;;;18.30;99.90;;;;;;5047733;28;20411;-90
2023/01/01 12:21:03;;;;;;;4.90;2.87;;;18.20;99.90;;;;;;5055074;28;20416;-89
2023/01/01 12:23:35;;;;;;;6.20;3.17;;;18.20;99.90;;;;;;5587072;22;21602;-88
2023/01/01 12:40:04;;;;;;;3.50;3.00;;;18.10;99.90;;;;;;5402891;23;20472;-90
2023/01/01 12:59:25;;;;;;;4.83;3.60;;;18.00;99.90;;;;;;6075333;23;20680;31
2023/01/01 13:26:16;;;;;;;7.40;3.73;;;17.50;99.90;;;;;;5029960;28;20425;-90
2023/01/01 13:56:28;;;;;;;13.40;4.60;;;16.70;99.90;;;;;;5073753;23;21557;-85
2023/01/01 14:02:23;;;;;;;6.17;3.00;;;16.60;99.90;;;;;;5361848;23;20712;31
2023/01/01 14:10:35;;;;;;;6.03;3.70;;;16.30;99.90;;;;;;5645947;23;20422;-90
2023/01/01 14:16:00;;;;;;;10.40;6.60;;;16.10;99.90;;;;;;5262394;23;20449;-89
2023/01/01 14:18:37;;;;;;;5.50;4.77;;;16.00;99.90;;;;;;5343319;23;20450;-89
2023/01/01 14:21:18;;;;;;;10.20;5.20;;;15.80;99.90;;;;;;5548317;23;20498;-92
2023/01/01 14:32:10;;;;;;;11.10;4.07;;;15.50;99.90;;;;;;5748059;23;20453;-89
2023/01/01 14:34:46;;;;;;;9.13;4.67;;;15.40;99.90;;;;;;5497908;23;20604;-89
2023/01/01 15:03:55;;;;;;;7.70;3.90;;;14.60;99.90;;;;;;5935410;23;20438;-88
2023/01/01 15:14:39;;;;;;;6.73;5.00;;;14.60;99.90;;;;;;4967901;28;20470;-90
2023/01/01 15:17:12;;;;;;;6.77;4.63;;;14.40;99.90;;;;;;4969855;28;20450;-88
2023/01/01 15:19:43;;;;;;;7.82;4.47;;;14.50;99.90;;;;;;5333365;23;21306;-89
2023/01/01 15:22:26;;;;;;;8.50;4.90;;;14.40;99.90;;;;;;4950525;28;20250;-89
2023/01/01 15:24:54;;;;;;;9.65;4.90;;;14.40;99.90;;;;;;4967262;28;20447;-89
2023/01/01 15:35:30;;;;;;;8.60;4.38;;;14.10;99.90;;;;;;5729863;23;20212;-90
2023/01/01 15:38:07;;;;;;;13.07;6.87;;;14.00;99.90;;;;;;5534230;23;20224;-89
2023/01/01 15:40:39;;;;;;;8.68;3.90;;;14.00;99.90;;;;;;4977024;28;20458;-89
2023/01/01 15:43:19;;;;;;;8.45;4.97;;;14.00;99.90;;;;;;4966921;29;20285;-91
2023/01/01 15:45:54;;;;;;;6.70;4.95;;;14.00;99.90;;;;;;4957239;28;20197;-89
2023/01/01 15:48:36;;;;;;;9.38;5.75;;;14.10;99.90;;;;;;5169032;23;20267;-91
2023/01/01 15:51:27;;;;;;;7.10;4.95;;;14.10;99.90;;;;;;4975519;28;20485;-89
2023/01/01 15:54:04;;;;;;;6.93;5.18;;;14.00;99.90;;;;;;4961068;28;20287;-88
2023/01/01 15:56:38;;;;;;;11.77;6.28;;;14.10;99.90;;;;;;4972214;28;20239;-88
2023/01/01 16:01:57;;;;;;;8.45;5.75;;;14.10;99.90;;;;;;5430494;23;20210;-91
2023/01/01 16:04:28;;;;;;;8.50;4.40;;;13.90;99.90;;;;;;4978687;28;20209;-88
2023/01/01 16:06:57;;;;;;;9.77;5.78;;;13.80;99.90;;;;;;4979647;28;20432;-88
2023/01/01 16:09:24;;;;;;;14.35;5.10;;;14.00;99.90;;;;;;4956695;28;20189;-89
2023/01/01 16:11:58;;;;;;;10.20;5.18;;;13.90;99.90;;;;;;4961163;28;20295;-88
2023/01/01 16:14:30;;;;;;;5.60;4.20;;;14.00;99.90;;;;;;4957095;29;20196;-90
2023/01/01 16:16:59;;;;;;;10.63;6.47;;;14.10;99.90;;;;;;4954923;28;20275;-90
2023/01/01 16:19:29;;;;;;;8.75;5.38;;;14.00;99.90;;;;;;4974140;28;20198;-89
2023/01/01 16:21:58;;;;;;;9.77;4.70;;;13.90;99.90;;;;;;4957706;28;20242;-89
2023/01/01 16:26:59;;;;;;;9.15;6.00;;;13.80;99.90;;;;;;5166711;23;20234;-87
2023/01/01 16:29:26;;;;;;;8.88;5.85;;;13.60;99.90;;;;;;4987011;28;20211;-89
2023/01/01 16:31:54;;;;;;;10.05;7.63;;;13.60;99.90;;;;;;4980599;28;20255;-89
2023/01/01 16:34:22;;;;;;;6.72;4.82;;;13.50;99.90;;;;;;5289671;23;21283;-89
2023/01/01 16:44:57;;;;;;;7.85;6.20;;;13.40;99.90;;;;;;5159099;23;20245;-88
2023/01/01 16:50:04;;;;;;;8.65;5.38;;;13.40;99.90;;;;;;5321585;23;20472;-91
2023/01/01 16:55:12;;;;;;;9.80;6.15;;;13.30;99.90;;;;;;5139051;23;20234;-90
2023/01/01 16:57:46;;;;;;;11.07;5.20;;;13.30;99.90;;;;;;4964310;28;20240;-89
2023/01/01 17:00:13;;;;;;;8.60;5.03;;;13.30;99.90;;;;;;4964589;28;20569;-92
2023/01/01 17:02:47;;;;;;;7.88;5.40;;;13.30;99.90;;;;;;4967927;28;20234;-90
2023/01/01 17:05:16;;;;;;;11.63;5.60;;;13.20;99.90;;;;;;4983566;28;20269;-90
2023/01/01 17:07:50;;;;;;;11.50;6.35;;;13.30;99.90;;;;;;4979396;28;20206;-89
2023/01/01 17:10:20;;;;;;;10.10;5.18;;;13.30;99.90;;;;;;4962494;28;20218;-90
2023/01/01 17:13:00;;;;;;;14.50;5.72;;;13.30;99.90;;;;;;4980335;28;20210;-90
2023/01/01 17:15:28;;;;;;;7.30;5.20;;;13.30;99.90;;;;;;4962875;28;20202;-88
2023/01/01 17:17:59;;;;;;;8.20;5.53;;;13.20;99.90;;;;;;4982019;28;20187;-90
2023/01/01 17:20:28;;;;;;;8.70;5.45;;;13.10;99.90;;;;;;4976554;28;20313;-91
2023/01/01 17:22:56;;;;;;;8.88;4.68;;;13.20;99.90;;;;;;4989945;28;20224;-87
2023/01/01 17:25:23;;;;;;;7.85;5.15;;;13.30;99.90;;;;;;5861993;23;20233;31
2023/01/01 17:27:52;;;;;;;6.93;5.38;;;13.30;99.90;;;;;;5341159;23;20315;-88
2023/01/01 17:30:20;;;;;;;8.55;4.80;;;13.30;99.90;;;;;;4964405;28;20215;-91
2023/01/01 17:32:53;;;;;;;10.15;5.85;;;13.40;99.90;;;;;;5696781;23;20698;-88
2023/01/01 17:35:26;;;;;;;14.52;7.00;;;13.30;99.90;;;;;;5398967;23;20228;-89
2023/01/01 17:59:32;;;;;;;8.00;7.05;;;12.90;99.90;;;;;;5819023;23;20217;-88
2023/01/01 18:07:10;;;;;;;6.85;5.25;;;13.00;99.90;;;;;;5853020;23;20239;-87
2023/01/01 18:09:37;;;;;;;8.10;4.80;;;13.10;99.90;;;;;;5374239;23;20219;-88
2023/01/01 18:12:05;;;;;;;8.65;5.45;;;13.20;99.90;;;;;;5536231;23;20923;-89
2023/01/01 18:14:39;;;;;;;12.07;6.10;;;13.20;99.90;;;;;;5051222;23;20242;-90
2023/01/01 18:17:06;;;;;;;10.48;5.50;;;13.20;99.90;;;;;;4967336;28;20195;-88
2023/01/01 18:19:37;;;;;;;6.57;5.35;;;13.00;99.90;;;;;;4947513;29;20210;-91
2023/01/01 18:22:08;;;;;;;5.80;4.72;;;13.20;99.90;;;;;;4973755;28;20613;-90
2023/01/01 18:24:35;;;;;;;6.93;5.32;;;13.20;99.90;;;;;;5122633;23;20254;-90
2023/01/01 18:27:04;;;;;;;7.38;4.38;;;13.20;99.90;;;;;;4962465;28;20303;-91
2023/01/01 18:29:31;;;;;;;5.32;4.22;;;13.20;99.90;;;;;;4957027;29;20220;-89
2023/01/01 18:31:59;;;;;;;6.55;4.15;;;13.30;99.90;;;;;;4936157;29;20204;-90
2023/01/01 18:34:29;;;;;;;7.38;5.25;;;13.40;99.90;;;;;;4946782;29;20219;-89
2023/01/01 18:36:58;;;;;;;7.53;3.88;;;13.30;99.90;;;;;;4950462;29;20195;-90
2023/01/01 18:39:40;;;;;;;8.60;5.38;;;13.30;99.90;;;;;;4959885;28;20211;-90
2023/01/01 18:42:22;;;;;;;7.50;4.30;;;13.40;99.90;;;;;;4960844;28;20443;-90
2023/01/01 18:44:52;;;;;;;6.60;4.55;;;13.50;99.90;;;;;;4947125;28;20239;-90
2023/01/01 18:47:23;;;;;;;4.35;3.92;;;13.60;99.90;;;;;;4961513;28;20210;-90